createdAt,value
2018-11-11T00:01:16.527Z,36.90
2018-11-11T00:03:50.290Z,35.80
2018-11-11T00:06:24.158Z,37.77
2018-11-11T00:08:59.974Z,40.23
2018-11-11T00:11:33.769Z,38.93
2018-11-11T00:14:07.735Z,37.73
2018-11-11T00:16:41.505Z,36.30
2018-11-11T00:19:16.490Z,37.70
2018-11-11T00:21:50.331Z,35.20
2018-11-11T00:24:24.329Z,42.90
2018-11-11T00:26:58.170Z,33.17
2018-11-11T00:29:31.965Z,32.80
2018-11-11T00:32:05.894Z,35.97
2018-11-11T00:34:39.760Z,36.23
2018-11-11T00:37:13.538Z,38.53
2018-11-11T00:39:48.320Z,36.97
2018-11-11T00:42:22.135Z,37.97
2018-11-11T00:45:06.557Z,34.07
2018-11-11T00:47:40.350Z,36.93
2018-11-11T00:50:15.275Z,35.07
2018-11-11T00:52:49.042Z,34.97
2018-11-11T00:55:23.902Z,37.10
2018-11-11T00:57:57.664Z,36.67
2018-11-11T01:00:33.441Z,33.30
2018-11-11T01:03:07.201Z,38.03
2018-11-11T01:05:42.040Z,35.03
2018-11-11T01:08:15.863Z,36.67
2018-11-11T01:10:50.701Z,36.00
2018-11-11T01:13:24.484Z,39.00
2018-11-11T01:15:59.332Z,34.60
2018-11-11T01:18:33.105Z,34.93
2018-11-11T01:21:06.938Z,35.17
2018-11-11T01:23:40.745Z,35.70
2018-11-11T01:26:15.620Z,34.67
2018-11-11T01:28:49.424Z,35.97
2018-11-11T01:31:23.273Z,33.27
2018-11-11T01:33:57.037Z,34.43
2018-11-11T01:36:30.884Z,36.03
2018-11-11T01:39:05.759Z,34.17
2018-11-11T01:41:40.557Z,34.73
2018-11-11T01:44:14.314Z,33.93
2018-11-11T01:46:49.168Z,35.50
2018-11-11T01:49:22.948Z,33.60
2018-11-11T01:51:56.681Z,34.43
2018-11-11T01:54:30.453Z,36.83
2018-11-11T01:57:05.645Z,35.60
2018-11-11T01:59:39.412Z,36.07
2018-11-11T02:02:14.173Z,38.40
2018-11-11T02:04:47.913Z,35.70
2018-11-11T02:07:21.699Z,38.07
2018-11-11T02:09:55.517Z,32.53
2018-11-11T02:12:30.451Z,33.70
2018-11-11T02:15:04.300Z,36.30
2018-11-11T02:17:39.079Z,31.07
2018-11-11T02:20:15.222Z,35.90
2018-11-11T02:22:51.673Z,30.87
2018-11-11T02:25:25.453Z,33.37
2018-11-11T02:28:00.253Z,34.03
2018-11-11T02:30:34.024Z,33.13
2018-11-11T02:33:09.904Z,30.97
2018-11-11T02:35:43.661Z,32.37
2018-11-11T02:38:17.501Z,33.43
2018-11-11T02:40:51.303Z,35.57
2018-11-11T02:43:27.071Z,32.53
2018-11-11T02:46:00.860Z,36.17
2018-11-11T02:48:35.699Z,34.47
2018-11-11T02:51:09.499Z,34.63
2018-11-11T02:53:44.383Z,31.73
2018-11-11T02:56:18.183Z,34.63
2018-11-11T02:58:54.026Z,30.33
2018-11-11T03:01:27.822Z,30.03
2018-11-11T03:04:05.883Z,32.23
2018-11-11T03:06:39.819Z,32.47
2018-11-11T03:09:14.077Z,32.33
2018-11-11T03:11:47.853Z,32.57
2018-11-11T03:14:22.715Z,30.33
2018-11-11T03:16:56.512Z,30.23
2018-11-11T03:19:30.303Z,32.30
2018-11-11T03:22:04.099Z,33.43
2018-11-11T03:24:38.981Z,32.57
2018-11-11T03:27:12.754Z,32.07
2018-11-11T03:29:47.539Z,30.87
2018-11-11T03:32:21.335Z,33.50
2018-11-11T03:34:55.254Z,33.23
2018-11-11T03:37:29.041Z,36.37
2018-11-11T03:40:07.094Z,31.83
2018-11-11T03:42:40.990Z,35.53
2018-11-11T03:45:16.203Z,34.23
2018-11-11T03:47:51.205Z,34.80
2018-11-11T03:50:24.998Z,32.63
2018-11-11T03:52:58.811Z,33.17
2018-11-11T03:55:32.607Z,35.80
2018-11-11T03:58:06.396Z,36.33
2018-11-11T04:00:42.345Z,32.23
2018-11-11T04:03:16.115Z,39.67
2018-11-11T04:05:52.975Z,38.93
2018-11-11T04:08:26.786Z,35.20
2018-11-11T04:11:00.809Z,31.07
2018-11-11T04:13:34.778Z,37.97
2018-11-11T04:16:10.658Z,35.30
2018-11-11T04:18:44.444Z,32.50
2018-11-11T04:21:19.358Z,33.07
2018-11-11T04:23:53.142Z,39.17
2018-11-11T04:26:27.001Z,32.73
2018-11-11T04:29:00.811Z,37.37
2018-11-11T04:31:34.576Z,31.87
2018-11-11T04:34:08.390Z,35.40
2018-11-11T04:36:43.122Z,35.67
2018-11-11T04:39:17.003Z,40.10
2018-11-11T04:41:55.269Z,39.30
2018-11-11T04:44:29.065Z,35.40
2018-11-11T04:47:02.875Z,35.37
2018-11-11T04:49:36.667Z,36.23
2018-11-11T04:52:12.441Z,39.33
2018-11-11T04:54:46.209Z,36.20
2018-11-11T04:57:24.150Z,34.80
2018-11-11T04:59:57.919Z,41.23
2018-11-11T05:05:53.151Z,37.37
2018-11-11T05:08:26.975Z,42.17
2018-11-11T05:11:00.853Z,40.10
2018-11-11T05:13:34.606Z,40.47
2018-11-11T05:16:19.685Z,36.63
2018-11-11T05:18:53.455Z,40.00
2018-11-11T05:21:29.349Z,33.50
2018-11-11T05:24:03.426Z,35.70
2018-11-11T05:26:39.218Z,39.33
2018-11-11T05:29:12.978Z,33.73
2018-11-11T05:31:52.817Z,33.60
2018-11-11T05:34:26.583Z,35.30
2018-11-11T05:37:01.405Z,34.93
2018-11-11T05:39:35.210Z,37.47
2018-11-11T05:42:13.667Z,37.10
2018-11-11T05:44:47.462Z,36.57
2018-11-11T05:47:22.396Z,39.53
2018-11-11T05:49:56.164Z,37.83
2018-11-11T05:52:30.975Z,31.33
2018-11-11T05:55:05.776Z,35.70
2018-11-11T05:57:41.731Z,36.00
2018-11-11T06:00:16.863Z,34.67
2018-11-11T06:02:51.728Z,37.73
2018-11-11T06:05:25.532Z,36.33
2018-11-11T06:08:02.558Z,35.13
2018-11-11T06:10:36.400Z,35.70
2018-11-11T06:13:11.339Z,39.30
2018-11-11T06:15:45.201Z,43.97
2018-11-11T06:18:21.025Z,37.37
2018-11-11T06:20:54.748Z,40.50
2018-11-11T06:23:46.514Z,39.23
2018-11-11T06:26:20.256Z,37.87
2018-11-11T06:29:00.706Z,41.20
2018-11-11T06:31:34.441Z,37.13
2018-11-11T06:34:08.387Z,37.33
2018-11-11T06:36:42.284Z,39.93
2018-11-11T06:39:22.108Z,37.43
2018-11-11T06:41:55.848Z,37.13
2018-11-11T06:44:29.721Z,34.20
2018-11-11T06:47:03.876Z,38.30
2018-11-11T06:49:38.819Z,34.83
2018-11-11T06:52:12.607Z,33.83
2018-11-11T06:54:47.538Z,36.30
2018-11-11T06:57:21.340Z,34.80
2018-11-11T07:00:03.339Z,34.33
2018-11-11T07:02:40.943Z,33.67
2018-11-11T07:05:16.731Z,35.23
2018-11-11T07:07:50.495Z,32.33
2018-11-11T07:10:24.336Z,31.00
2018-11-11T07:12:58.116Z,33.57
2018-11-11T07:15:37.429Z,40.10
2018-11-11T07:18:11.209Z,35.47
2018-11-11T07:20:46.034Z,33.47
2018-11-11T07:23:19.780Z,31.67
2018-11-11T07:25:54.690Z,29.60
2018-11-11T07:28:28.644Z,32.60
2018-11-11T07:31:04.829Z,31.93
2018-11-11T07:33:38.889Z,32.03
2018-11-11T07:36:17.753Z,35.10
2018-11-11T07:38:51.488Z,35.23
2018-11-11T07:41:26.356Z,39.00
2018-11-11T07:44:01.485Z,34.70
2018-11-11T07:46:40.940Z,33.47
2018-11-11T07:49:14.988Z,34.43
2018-11-11T07:51:49.855Z,41.40
2018-11-11T07:54:23.753Z,48.63
2018-11-11T07:56:59.603Z,53.63
2018-11-11T07:59:33.347Z,34.10
2018-11-11T08:02:08.631Z,30.17
2018-11-11T08:04:42.597Z,30.97
2018-11-11T08:07:18.420Z,31.93
2018-11-11T08:09:52.189Z,30.33
2018-11-11T08:12:28.088Z,34.57
2018-11-11T08:15:01.842Z,30.57
2018-11-11T08:17:46.595Z,30.07
2018-11-11T08:20:20.402Z,31.80
2018-11-11T08:22:56.311Z,29.83
2018-11-11T08:25:30.152Z,30.00
2018-11-11T08:28:09.826Z,31.07
2018-11-11T08:30:43.749Z,30.37
2018-11-11T08:33:21.332Z,30.27
2018-11-11T08:35:55.108Z,32.73
2018-11-11T08:38:32.290Z,29.40
2018-11-11T08:41:06.251Z,27.30
2018-11-11T08:43:41.075Z,29.77
2018-11-11T08:46:14.892Z,31.40
2018-11-11T08:48:52.618Z,27.23
2018-11-11T08:51:26.506Z,25.70
2018-11-11T08:54:03.875Z,27.40
2018-11-11T08:56:37.715Z,33.23
2018-11-11T08:59:14.689Z,30.10
2018-11-11T09:01:48.474Z,24.83
2018-11-11T09:04:23.406Z,28.53
2018-11-11T09:06:57.219Z,24.60
2018-11-11T09:09:36.642Z,26.13
2018-11-11T09:12:10.395Z,25.23
2018-11-11T09:14:46.312Z,27.50
2018-11-11T09:17:20.161Z,23.83
2018-11-11T09:19:55.161Z,26.63
2018-11-11T09:22:28.918Z,23.40
2018-11-11T09:25:08.250Z,23.85
2018-11-11T09:27:42.416Z,20.73
2018-11-11T09:30:17.368Z,27.43
2018-11-11T09:32:51.566Z,23.87
2018-11-11T09:38:27.916Z,23.67
2018-11-11T09:41:01.738Z,23.20
2018-11-11T09:43:39.650Z,21.45
2018-11-11T09:46:14.110Z,24.27
2018-11-11T09:48:51.940Z,22.42
2018-11-11T09:51:26.334Z,20.92
2018-11-11T09:54:00.816Z,24.35
2018-11-11T09:56:35.445Z,21.12
2018-11-11T09:59:11.894Z,19.77
2018-11-11T10:01:46.309Z,19.95
2018-11-11T10:04:25.785Z,20.15
2018-11-11T10:09:09.247Z,21.20
2018-11-11T10:11:47.382Z,19.55
2018-11-11T10:14:27.332Z,20.40
2018-11-11T10:17:41.154Z,18.17
2018-11-11T10:20:18.723Z,18.07
2018-11-11T10:23:15.150Z,16.73
2018-11-11T10:25:57.201Z,17.95
2018-11-11T10:28:43.733Z,16.25
2018-11-11T10:48:42.222Z,16.00
2018-11-11T10:51:16.805Z,13.83
2018-11-11T10:53:50.865Z,16.37
2018-11-11T10:56:26.524Z,12.55
2018-11-11T10:59:00.914Z,14.13
2018-11-11T11:01:40.636Z,12.28
2018-11-11T11:04:15.076Z,11.10
2018-11-11T11:07:06.468Z,13.62
2018-11-11T11:09:40.820Z,12.10
2018-11-11T11:12:22.431Z,12.30
2018-11-11T11:14:56.877Z,10.80
2018-11-11T11:17:32.308Z,12.55
2018-11-11T11:20:07.273Z,10.88
2018-11-11T11:22:43.741Z,15.10
2018-11-11T11:25:18.112Z,12.15
2018-11-11T11:28:03.034Z,12.95
2018-11-11T11:30:37.428Z,14.07
2018-11-11T11:33:12.823Z,13.15
2018-11-11T11:35:47.239Z,11.95
2018-11-11T11:38:23.949Z,14.98
2018-11-11T11:40:58.512Z,12.35
2018-11-11T11:43:32.974Z,16.37
2018-11-11T11:46:07.396Z,14.03
2018-11-11T11:48:42.839Z,13.40
2018-11-11T11:51:17.213Z,11.65
2018-11-11T11:53:51.645Z,12.68
2018-11-11T11:56:25.999Z,12.53
2018-11-11T11:59:03.859Z,11.78
2018-11-11T12:01:38.228Z,12.18
2018-11-11T12:04:13.669Z,13.00
2018-11-11T12:06:48.084Z,12.13
2018-11-11T12:09:27.602Z,11.10
2018-11-11T12:12:02.000Z,10.40
2018-11-11T12:14:50.572Z,12.18
2018-11-11T12:17:25.012Z,12.80
2018-11-11T12:19:59.453Z,11.75
2018-11-11T12:22:33.838Z,10.58
2018-11-11T12:25:09.590Z,12.03
2018-11-11T12:27:43.976Z,12.47
2018-11-11T12:30:18.465Z,10.65
2018-11-11T12:32:53.037Z,10.13
2018-11-11T12:35:27.506Z,9.45
2018-11-11T12:38:02.341Z,9.38
2018-11-11T12:40:37.775Z,10.25
2018-11-11T12:43:12.177Z,9.90
2018-11-11T12:45:50.079Z,9.10
2018-11-11T12:48:24.430Z,7.37
2018-11-11T12:50:59.844Z,8.55
2018-11-11T12:53:34.217Z,8.88
2018-11-11T12:56:10.481Z,9.08
2018-11-11T12:58:44.898Z,7.65
2018-11-11T13:01:20.474Z,8.03
2018-11-11T13:03:54.859Z,9.50
2018-11-11T13:06:30.246Z,8.93
2018-11-11T13:09:06.969Z,8.78
2018-11-11T13:11:41.619Z,7.15
2018-11-11T13:14:15.995Z,9.58
2018-11-11T13:16:51.474Z,7.10
2018-11-11T13:19:25.942Z,8.30
2018-11-11T13:22:00.594Z,5.78
2018-11-11T13:24:35.039Z,9.13
2018-11-11T13:27:09.633Z,7.25
2018-11-11T13:29:43.976Z,7.85
2018-11-11T13:32:20.355Z,7.20
2018-11-11T13:34:54.694Z,6.90
2018-11-11T13:37:29.219Z,6.05
2018-11-11T13:40:03.719Z,8.20
2018-11-11T13:42:37.596Z,7.70
2018-11-11T13:45:15.073Z,7.08
2018-11-11T13:47:50.413Z,6.47
2018-11-11T13:50:25.247Z,4.93
2018-11-11T13:52:59.704Z,7.22
2018-11-11T13:55:33.494Z,7.80
2018-11-11T13:58:08.308Z,7.80
2018-11-11T14:00:42.105Z,7.42
2018-11-11T14:03:16.922Z,5.57
2018-11-11T14:05:51.322Z,7.67
2018-11-11T14:08:25.319Z,7.90
2018-11-11T14:10:59.277Z,7.17
2018-11-11T14:13:33.222Z,6.53
2018-11-11T14:16:06.999Z,7.10
2018-11-11T14:18:43.548Z,8.65
2018-11-11T14:21:17.942Z,7.58
2018-11-11T14:23:52.288Z,6.15
2018-11-11T14:26:26.919Z,5.55
2018-11-11T14:29:01.331Z,5.12
2018-11-11T14:31:35.140Z,8.23
2018-11-11T14:34:09.689Z,7.70
2018-11-11T14:36:43.454Z,6.40
2018-11-11T14:39:18.353Z,11.57
2018-11-11T14:41:52.148Z,7.93
2018-11-11T14:44:26.002Z,8.93
2018-11-11T14:47:00.289Z,9.25
2018-11-11T14:49:34.694Z,10.03
2018-11-11T14:52:08.560Z,8.70
2018-11-11T14:54:42.451Z,8.60
2018-11-11T14:57:16.219Z,9.90
2018-11-11T14:59:50.585Z,11.60
2018-11-11T15:02:24.395Z,10.43
2018-11-11T15:04:59.233Z,12.80
2018-11-11T15:07:33.005Z,14.97
2018-11-11T15:10:09.831Z,14.27
2018-11-11T15:12:43.659Z,13.27
2018-11-11T15:15:18.807Z,12.73
2018-11-11T15:17:53.249Z,11.47
2018-11-11T15:20:29.285Z,12.07
2018-11-11T15:23:03.121Z,11.80
2018-11-11T15:25:41.558Z,10.77
2018-11-11T15:28:15.317Z,10.20
2018-11-11T15:30:50.490Z,10.40
2018-11-11T15:33:24.183Z,8.67
2018-11-11T15:36:02.310Z,10.13
2018-11-11T15:38:36.021Z,10.23
2018-11-11T15:41:12.876Z,9.43
2018-11-11T15:43:46.806Z,10.10
2018-11-11T15:46:21.119Z,11.17
2018-11-11T15:48:54.864Z,7.37
2018-11-11T15:51:28.769Z,7.27
2018-11-11T15:54:02.518Z,9.27
2018-11-11T15:56:36.453Z,8.27
2018-11-11T15:59:10.243Z,6.73
2018-11-11T16:01:45.798Z,11.17
2018-11-11T16:04:19.529Z,9.27
2018-11-11T16:06:55.541Z,8.23
2018-11-11T16:09:29.734Z,7.23
2018-11-11T16:12:03.506Z,8.23
2018-11-11T16:14:37.362Z,7.83
2018-11-11T16:17:13.136Z,7.13
2018-11-11T16:19:47.249Z,7.73
2018-11-11T16:22:21.117Z,9.17
2018-11-11T16:24:54.916Z,7.13
2018-11-11T16:27:28.785Z,9.40
2018-11-11T16:30:03.740Z,9.10
2018-11-11T16:32:38.534Z,10.60
2018-11-11T16:35:13.541Z,10.13
2018-11-11T16:37:47.861Z,10.10
2018-11-11T16:40:22.956Z,9.40
2018-11-11T16:42:57.269Z,7.33
2018-11-11T16:45:32.164Z,11.03
2018-11-11T16:48:07.148Z,10.97
2018-11-11T16:50:41.099Z,8.43
2018-11-11T16:53:16.132Z,8.73
2018-11-11T16:55:50.012Z,6.57
2018-11-11T16:58:24.268Z,8.43
2018-11-11T17:00:58.127Z,7.93
2018-11-11T17:03:32.037Z,7.60
2018-11-11T17:06:06.509Z,6.90
2018-11-11T17:08:40.753Z,9.47
2018-11-11T17:11:14.526Z,7.20
2018-11-11T17:13:48.453Z,6.33
2018-11-11T17:16:22.287Z,7.47
2018-11-11T17:18:56.153Z,7.90
2018-11-11T17:21:30.072Z,7.33
2018-11-11T17:24:04.476Z,7.63
2018-11-11T17:26:38.261Z,6.63
2018-11-11T17:29:16.242Z,6.47
2018-11-11T17:31:50.040Z,7.17
2018-11-11T17:34:26.017Z,8.47
2018-11-11T17:36:59.805Z,9.20
2018-11-11T17:39:36.813Z,10.17
2018-11-11T17:42:10.929Z,9.20
2018-11-11T17:44:46.793Z,9.50
2018-11-11T17:47:20.632Z,10.13
2018-11-11T17:49:59.125Z,11.33
2018-11-11T17:52:32.955Z,10.13
2018-11-11T17:55:09.438Z,9.80
2018-11-11T17:57:43.784Z,9.97
2018-11-11T18:00:22.153Z,10.23
2018-11-11T18:02:56.579Z,9.83
2018-11-11T18:05:32.134Z,9.73
2018-11-11T18:08:06.252Z,9.37
2018-11-11T18:10:42.359Z,10.27
2018-11-11T18:13:16.272Z,11.60
2018-11-11T18:15:50.186Z,11.47
2018-11-11T18:18:24.008Z,10.17
2018-11-11T18:20:58.800Z,9.23
2018-11-11T18:23:32.608Z,9.70
2018-11-11T18:26:07.501Z,12.73
2018-11-11T18:28:41.361Z,9.57
2018-11-11T18:31:16.541Z,10.70
2018-11-11T18:33:50.414Z,11.90
2018-11-11T18:36:26.275Z,11.33
2018-11-11T18:39:00.094Z,10.73
2018-11-11T18:41:52.413Z,9.87
2018-11-11T18:44:26.380Z,8.23
2018-11-11T18:47:02.708Z,7.10
2018-11-11T18:49:36.544Z,9.67
2018-11-11T18:52:13.573Z,7.80
2018-11-11T18:54:47.464Z,7.37
2018-11-11T18:57:22.433Z,6.90
2018-11-11T18:59:56.316Z,7.40
2018-11-11T19:02:33.289Z,9.27
2018-11-11T19:05:08.326Z,7.73
2018-11-11T19:07:46.724Z,7.77
2018-11-11T19:10:21.879Z,6.73
2018-11-11T19:13:00.333Z,5.13
2018-11-11T19:15:34.233Z,7.97
2018-11-11T19:18:08.135Z,9.10
2018-11-11T19:20:41.936Z,6.40
2018-11-11T19:23:15.856Z,7.23
2018-11-11T19:25:49.689Z,7.30
2018-11-11T19:28:28.303Z,8.57
2018-11-11T19:31:02.130Z,7.90
2018-11-11T19:33:38.024Z,7.17
2018-11-11T19:36:12.028Z,5.70
2018-11-11T19:38:50.178Z,6.03
2018-11-11T19:41:24.060Z,5.23
2018-11-11T19:43:59.990Z,6.23
2018-11-11T19:46:33.824Z,6.07
2018-11-11T19:49:09.073Z,6.20
2018-11-11T19:51:43.034Z,7.83
2018-11-11T19:54:17.272Z,6.40
2018-11-11T19:56:51.164Z,7.03
2018-11-11T19:59:25.503Z,9.33
2018-11-11T20:01:59.338Z,6.27
2018-11-11T20:04:35.174Z,9.13
2018-11-11T20:07:08.991Z,7.30
2018-11-11T20:09:48.875Z,7.23
2018-11-11T20:12:22.727Z,7.43
2018-11-11T20:14:57.552Z,6.17
2018-11-11T20:17:31.466Z,6.07
2018-11-11T20:20:07.215Z,7.37
2018-11-11T20:22:41.291Z,8.90
2018-11-11T20:25:21.124Z,7.90
2018-11-11T20:27:54.909Z,8.57
2018-11-11T20:30:32.245Z,9.80
2018-11-11T20:33:06.531Z,8.17
2018-11-11T20:35:41.412Z,6.07
2018-11-11T20:38:15.231Z,6.83
2018-11-11T20:40:49.190Z,6.03
2018-11-11T20:43:23.370Z,9.30
2018-11-11T20:46:02.266Z,8.70
2018-11-11T20:48:36.053Z,9.80
2018-11-11T20:51:10.929Z,10.20
2018-11-11T20:53:44.730Z,10.53
2018-11-11T20:56:22.847Z,7.70
2018-11-11T20:58:56.873Z,9.53
2018-11-11T21:01:32.687Z,8.57
2018-11-11T21:04:06.610Z,6.20
2018-11-11T21:06:42.495Z,6.00
2018-11-11T21:09:16.408Z,9.90
2018-11-11T21:11:54.654Z,6.57
2018-11-11T21:14:28.491Z,9.00
2018-11-11T21:17:03.408Z,7.03
2018-11-11T21:19:37.414Z,10.17
2018-11-11T21:22:13.295Z,8.73
2018-11-11T21:24:47.126Z,8.10
2018-11-11T21:27:20.962Z,8.57
2018-11-11T21:29:54.743Z,6.30
2018-11-11T21:32:29.533Z,8.30
2018-11-11T21:35:03.532Z,7.47
2018-11-11T21:37:37.611Z,7.67
2018-11-11T21:40:14.277Z,7.47
2018-11-11T21:42:49.970Z,6.57
2018-11-11T21:45:24.665Z,8.87
2018-11-11T21:47:59.143Z,7.07
2018-11-11T21:50:33.097Z,6.33
2018-11-11T21:53:16.242Z,8.57
2018-11-11T21:55:50.328Z,10.60
2018-11-11T21:58:24.853Z,13.27
2018-11-11T22:00:58.649Z,9.20
2018-11-11T22:03:32.473Z,8.97
2018-11-11T22:06:06.370Z,10.17
2018-11-11T22:08:40.207Z,14.87
2018-11-11T22:11:14.177Z,8.43
2018-11-11T22:13:50.004Z,6.97
2018-11-11T22:16:23.861Z,8.70
2018-11-11T22:18:57.700Z,6.67
2018-11-11T22:21:31.488Z,6.80
2018-11-11T22:24:05.353Z,9.70
2018-11-11T22:26:39.101Z,7.77
2018-11-11T22:29:12.911Z,7.50
2018-11-11T22:31:46.680Z,6.57
2018-11-11T22:34:20.578Z,6.47
2018-11-11T22:36:54.353Z,6.27
2018-11-11T22:39:28.153Z,5.50
2018-11-11T22:42:01.928Z,9.93
2018-11-11T22:44:36.779Z,6.00
2018-11-11T22:47:10.562Z,7.37
2018-11-11T22:49:46.334Z,6.70
2018-11-11T22:52:20.157Z,3.43
2018-11-11T22:54:55.226Z,7.40
2018-11-11T22:57:29.068Z,4.93
2018-11-11T23:00:02.961Z,4.70
2018-11-11T23:02:36.757Z,6.07
2018-11-11T23:05:12.673Z,9.30
2018-11-11T23:07:46.669Z,5.57
2018-11-11T23:10:21.722Z,5.20
2018-11-11T23:12:55.541Z,6.27
2018-11-11T23:15:31.416Z,4.07
2018-11-11T23:18:05.232Z,5.07
2018-11-11T23:20:44.384Z,6.13
2018-11-11T23:23:18.193Z,3.57
2018-11-11T23:25:52.020Z,6.00
2018-11-11T23:28:25.880Z,8.47
2018-11-11T23:31:00.013Z,6.63
2018-11-11T23:33:33.844Z,5.70
2018-11-11T23:36:08.722Z,4.17
2018-11-11T23:38:42.540Z,7.00
2018-11-11T23:41:17.555Z,10.80
2018-11-11T23:43:51.370Z,9.97
2018-11-11T23:46:26.215Z,10.03
2018-11-11T23:49:00.036Z,7.83
2018-11-11T23:51:33.928Z,8.47
2018-11-11T23:54:07.748Z,6.97
2018-11-11T23:56:45.272Z,6.87
2018-11-11T23:59:19.090Z,7.03
